Time;durP1;ratioP1;P1;durP2;ratioP2;P2;SDS_P1;SDS_P2;PMS_P1;PMS_P2;Temp;Humidity;BMP_temperature;BMP_pressure;BME280_temperature;BME280_humidity;BME280_pressure;Samples;Min_cycle;Max_cycle;Signal;HPM_P1;HPM_P2
2023/03/09 00:00:58;;;;;;;12.75;7.05;;;;;;;13.28;64.31;100024.44;5010827;28;20411;-80
2023/03/09 00:03:31;;;;;;;13.50;6.68;;;;;;;13.54;64.30;100071.41;4986999;28;20063;-80
2023/03/09 00:06:03;;;;;;;11.90;6.07;;;;;;;13.37;64.47;100044.75;4989701;28;20511;-80
2023/03/09 00:08:39;;;;;;;9.45;6.10;;;;;;;13.53;64.42;100064.41;4995272;28;20166;-80
2023/03/09 00:11:27;;;;;;;12.95;6.47;;;;;;;13.51;65.15;100071.75;4994288;28;20053;-78
2023/03/09 00:13:55;;;;;;;11.77;6.32;;;;;;;13.54;64.43;100071.41;4981481;28;20058;-78
2023/03/09 00:16:29;;;;;;;12.32;6.25;;;;;;;13.45;64.44;100068.75;4995153;28;20443;-78
2023/03/09 00:18:57;;;;;;;12.63;6.82;;;;;;;13.32;64.38;100057.75;4993974;28;20107;-80
2023/03/09 00:21:36;;;;;;;10.27;5.80;;;;;;;13.38;64.30;100065.09;4973985;28;20334;-79
2023/03/09 00:24:24;;;;;;;14.25;6.07;;;;;;;13.37;64.53;100070.59;4982272;28;20462;-78
2023/03/09 00:26:59;;;;;;;11.10;6.03;;;;;;;13.35;64.90;100083.25;4974931;28;20053;-80
2023/03/09 00:29:30;;;;;;;14.15;5.35;;;;;;;13.36;65.09;100075.09;4983419;28;20053;-79
2023/03/09 00:31:57;;;;;;;11.93;5.88;;;;;;;13.34;65.39;100068.25;5007183;28;20044;-81
2023/03/09 00:34:29;;;;;;;13.95;5.70;;;;;;;13.14;65.48;100047.25;4985907;28;20053;-79
2023/03/09 00:37:05;;;;;;;15.95;6.28;;;;;;;13.23;66.00;100064.06;4968805;28;20056;-80
2023/03/09 00:39:42;;;;;;;13.20;5.63;;;;;;;13.13;65.78;100042.06;4942499;28;20344;-80
2023/03/09 00:42:14;;;;;;;16.75;6.50;;;;;;;13.07;65.97;100035.59;4976490;28;20049;-81
2023/03/09 00:44:50;;;;;;;10.77;5.93;;;;;;;12.98;66.15;100015.25;4971290;28;20443;-80
2023/03/09 00:47:18;;;;;;;16.23;5.60;;;;;;;13.31;65.50;100047.28;4963989;28;20256;-81
2023/03/09 00:49:59;;;;;;;15.07;5.45;;;;;;;13.33;65.70;100046.09;4967937;28;20219;-80
2023/03/09 00:52:25;;;;;;;14.77;5.40;;;;;;;13.21;65.30;100002.94;4986969;28;20393;-82
2023/03/09 00:54:56;;;;;;;22.20;6.47;;;;;;;13.25;65.71;100022.94;4976429;28;20578;-81
2023/03/09 00:57:30;;;;;;;12.32;5.68;;;;;;;13.14;65.52;100006.44;4989012;28;20410;-81
2023/03/09 01:00:10;;;;;;;14.43;5.85;;;;;;;13.24;65.78;100015.09;4986682;28;20100;-81
2023/03/09 01:02:48;;;;;;;11.98;5.45;;;;;;;13.18;66.05;100008.59;4975025;28;20399;-81
2023/03/09 01:05:15;;;;;;;15.45;5.55;;;;;;;13.21;65.84;100013.59;5015957;28;20056;-81
2023/03/09 01:07:42;;;;;;;17.00;6.47;;;;;;;13.13;66.27;100005.63;5020967;28;20392;-81
2023/03/09 01:10:11;;;;;;;14.48;6.30;;;;;;;13.23;66.61;100010.78;5009925;28;20494;-82
2023/03/09 01:12:42;;;;;;;13.63;6.18;;;;;;;13.20;66.94;100016.41;5016098;28;20126;-81
2023/03/09 01:15:10;;;;;;;12.88;5.53;;;;;;;13.03;66.85;99995.13;5026454;28;20077;-82
2023/03/09 01:17:36;;;;;;;11.73;5.78;;;;;;;13.12;67.28;100008.44;5002514;28;20045;-81
2023/03/09 01:20:05;;;;;;;9.23;5.28;;;;;;;13.05;67.00;100006.41;5005031;28;20128;-81
2023/03/09 01:22:41;;;;;;;15.93;5.80;;;;;;;13.05;67.02;99997.59;5002680;28;20041;-81
2023/03/09 01:25:14;;;;;;;10.48;5.25;;;;;;;12.82;67.21;99955.66;4989813;28;20450;-79
2023/03/09 01:27:40;;;;;;;11.57;5.50;;;;;;;12.67;67.71;99924.50;4990494;28;20049;-80
2023/03/09 01:30:24;;;;;;;9.15;4.85;;;;;;;13.16;66.30;99988.44;4981778;28;20578;-82
2023/03/09 01:32:54;;;;;;;8.70;5.28;;;;;;;13.27;66.29;99996.13;5008206;28;20498;-81
2023/03/09 01:35:24;;;;;;;14.75;4.90;;;;;;;13.23;67.01;99981.44;4989694;28;20333;-81
2023/03/09 01:37:58;;;;;;;9.98;4.85;;;;;;;13.25;66.72;99993.59;5002306;28;20189;-81
2023/03/09 01:40:33;;;;;;;9.90;5.63;;;;;;;13.03;67.01;99971.16;4994683;28;20363;-82
2023/03/09 01:43:29;;;;;;;19.02;5.22;;;;;;;12.96;67.00;99956.81;4993149;28;20302;-81
2023/03/09 01:46:23;;;;;;;9.93;4.72;;;;;;;13.17;67.07;100006.91;4991142;28;20401;-80
2023/03/09 01:48:58;;;;;;;15.13;5.15;;;;;;;12.99;67.21;99988.47;5007458;28;20346;-80
2023/03/09 01:51:30;;;;;;;11.45;5.05;;;;;;;12.86;67.80;99969.47;5021837;28;20056;-81
2023/03/09 01:54:25;;;;;;;10.90;4.45;;;;;;;13.03;67.54;99995.13;4988563;28;20571;-79
2023/03/09 01:57:00;;;;;;;9.93;4.93;;;;;;;13.10;67.63;100002.44;4985862;28;20045;-79
2023/03/09 01:59:32;;;;;;;9.55;4.45;;;;;;;13.09;67.69;100006.13;4970625;28;20054;-81
2023/03/09 02:02:01;;;;;;;12.07;4.95;;;;;;;13.08;67.98;100004.44;4997858;28;20049;-82
2023/03/09 02:04:39;;;;;;;13.57;4.97;;;;;;;13.02;68.07;99998.78;4936505;28;20363;-80
2023/03/09 02:07:10;;;;;;;11.23;4.80;;;;;;;12.94;68.38;99979.31;4972248;28;20147;-81
2023/03/09 02:09:48;;;;;;;12.05;4.55;;;;;;;12.94;68.33;99981.97;4966250;28;20076;-81
2023/03/09 02:12:24;;;;;;;8.25;4.80;;;;;;;13.05;67.97;99995.75;4965698;28;20215;-82
2023/03/09 02:14:52;;;;;;;11.80;4.80;;;;;;;13.16;68.11;100004.44;4961686;28;20076;-79
2023/03/09 02:17:19;;;;;;;9.77;4.97;;;;;;;12.88;67.93;99967.47;4956552;28;20050;-79
2023/03/09 02:19:45;;;;;;;8.50;4.35;;;;;;;13.12;68.55;100013.75;4956296;28;20049;-83
2023/03/09 02:22:15;;;;;;;11.63;5.13;;;;;;;12.81;68.37;99967.28;4952690;28;20116;-77
2023/03/09 02:24:55;;;;;;;9.93;4.65;;;;;;;12.74;68.33;99952.16;4961698;28;20243;-80
2023/03/09 02:27:27;;;;;;;12.68;5.47;;;;;;;13.15;67.88;100014.25;4940272;28;20053;-80
2023/03/09 02:30:03;;;;;;;11.48;4.47;;;;;;;13.16;67.06;100007.09;4956214;28;20048;-79
2023/03/09 02:32:30;;;;;;;9.50;4.45;;;;;;;12.97;67.32;99966.47;4947668;28;20512;-79
2023/03/09 02:35:03;;;;;;;16.70;4.65;;;;;;;13.11;67.44;99975.63;4959826;28;20042;-81
2023/03/09 02:37:32;;;;;;;12.88;5.07;;;;;;;12.72;68.04;99927.50;4924594;28;20447;-78
2023/03/09 02:40:13;;;;;;;9.27;4.45;;;;;;;13.12;67.84;99997.78;4940797;28;20092;-80
2023/03/09 02:42:45;;;;;;;11.40;4.50;;;;;;;12.96;68.13;99990.59;4948844;28;20516;-79
2023/03/09 02:45:17;;;;;;;11.25;4.10;;;;;;;12.95;68.02;100003.09;4930846;28;20112;-79
2023/03/09 02:47:46;;;;;;;10.60;4.22;;;;;;;12.89;68.25;99997.59;4944626;28;20038;-82
2023/03/09 02:50:14;;;;;;;9.75;4.05;;;;;;;12.79;67.55;99987.09;4943329;28;20341;-80
2023/03/09 02:52:40;;;;;;;11.25;4.72;;;;;;;12.74;68.38;99976.13;4956245;28;20112;-80
2023/03/09 02:55:16;;;;;;;9.82;4.80;;;;;;;12.86;68.06;99988.09;4931842;28;20450;-81
2023/03/09 02:57:51;;;;;;;6.57;4.00;;;;;;;13.03;67.04;100005.78;4943575;28;20049;-79
2023/03/09 03:00:28;;;;;;;11.13;5.13;;;;;;;12.98;67.53;100009.94;4935825;28;20168;-81
2023/03/09 03:02:58;;;;;;;11.10;4.03;;;;;;;12.85;68.02;99981.13;4982292;28;20065;-80
2023/03/09 03:05:24;;;;;;;10.10;4.32;;;;;;;12.50;68.05;99934.31;4957027;28;20050;-79
2023/03/09 03:07:56;;;;;;;9.52;5.07;;;;;;;12.72;68.05;99960.31;4928479;28;20108;-80
2023/03/09 03:10:25;;;;;;;7.68;4.28;;;;;;;12.75;67.33;99969.81;4932110;28;20455;-80
2023/03/09 03:12:59;;;;;;;12.20;4.70;;;;;;;12.92;67.67;99987.47;4927139;28;20092;-80
2023/03/09 03:15:30;;;;;;;6.90;3.83;;;;;;;12.86;67.21;99961.47;4951084;28;20046;-80
2023/03/09 03:18:03;;;;;;;17.15;4.50;;;;;;;12.82;67.31;99945.00;4947117;28;20054;-80
2023/03/09 03:20:31;;;;;;;6.57;4.38;;;;;;;12.94;66.82;99958.81;4938538;28;20042;-78
2023/03/09 03:22:58;;;;;;;12.45;4.65;;;;;;;12.86;67.23;99950.81;4941885;28;20842;-80
2023/03/09 03:25:33;;;;;;;10.43;4.97;;;;;;;12.82;67.18;99954.84;4948774;28;20570;-78
2023/03/09 03:28:02;;;;;;;8.90;4.85;;;;;;;12.79;67.48;99960.47;4945696;28;20141;-79
2023/03/09 03:30:36;;;;;;;10.40;5.43;;;;;;;12.43;67.86;99912.88;4936754;28;20085;-81
2023/03/09 03:33:03;;;;;;;12.13;4.95;;;;;;;12.43;68.29;99920.88;4943759;28;20804;-79
2023/03/09 03:35:31;;;;;;;12.60;5.22;;;;;;;12.57;68.61;99968.13;4922136;28;20077;-80
2023/03/09 03:38:06;;;;;;;11.65;4.53;;;;;;;12.41;68.48;99946.81;4943409;28;20685;-80
2023/03/09 03:40:38;;;;;;;7.70;4.43;;;;;;;12.60;68.41;99948.34;4943420;28;20343;-80
2023/03/09 03:43:06;;;;;;;11.15;4.57;;;;;;;12.42;68.14;99907.72;4962066;28;20311;-79
2023/03/09 03:45:38;;;;;;;15.90;4.97;;;;;;;12.59;68.38;99938.66;4924771;28;20411;-80
2023/03/09 03:48:10;;;;;;;11.65;4.80;;;;;;;12.30;68.61;99899.22;4956658;28;20458;-81
2023/03/09 03:50:38;;;;;;;12.23;4.90;;;;;;;12.35;69.06;99913.69;4949488;28;20393;-80
2023/03/09 03:53:08;;;;;;;13.30;4.95;;;;;;;12.26;69.25;99911.16;4952763;28;20117;-79
2023/03/09 03:55:34;;;;;;;8.85;4.40;;;;;;;12.40;69.22;99945.97;4929291;28;20047;-81
2023/03/09 03:58:19;;;;;;;10.43;4.57;;;;;;;12.32;69.70;99935.31;4962390;28;20376;-80
2023/03/09 04:01:00;;;;;;;7.75;4.13;;;;;;;12.28;69.91;99935.78;4958851;28;20337;-80
2023/03/09 04:03:29;;;;;;;12.93;4.95;;;;;;;11.22;70.05;99761.69;4972632;28;20054;-78
2023/03/09 04:06:07;;;;;;;10.60;4.65;;;;;;;12.13;70.03;99898.34;4938120;28;20058;-80
2023/03/09 04:08:36;;;;;;;11.18;5.20;;;;;;;12.14;70.32;99911.50;4965376;28;20367;-80
2023/03/09 04:11:08;;;;;;;9.77;4.82;;;;;;;11.73;69.82;99834.25;4931859;28;20119;-82
2023/03/09 04:13:39;;;;;;;12.82;4.80;;;;;;;12.02;70.46;99888.88;4949176;28;20502;-80
2023/03/09 04:16:10;;;;;;;8.95;4.25;;;;;;;12.07;70.49;99897.19;4973476;28;20574;-80
2023/03/09 04:18:37;;;;;;;6.72;3.63;;;;;;;12.12;70.38;99896.69;4944086;28;20042;-79
2023/03/09 04:21:06;;;;;;;10.98;4.85;;;;;;;12.16;70.24;99900.69;4947637;28;20088;-81
2023/03/09 04:23:32;;;;;;;9.45;4.53;;;;;;;12.24;70.01;99891.91;4956864;28;20501;-81
2023/03/09 04:26:06;;;;;;;8.40;4.95;;;;;;;12.13;70.33;99885.88;4943259;28;20400;-81
2023/03/09 04:28:35;;;;;;;10.52;4.43;;;;;;;12.29;70.20;99916.19;4962105;28;20472;-79
2023/03/09 04:31:08;;;;;;;12.57;4.80;;;;;;;12.09;69.89;99889.88;4946471;28;20412;-81
2023/03/09 04:33:42;;;;;;;6.75;4.63;;;;;;;12.21;69.91;99908.16;4963051;28;20129;-78
2023/03/09 04:36:14;;;;;;;10.73;4.38;;;;;;;12.16;69.67;99885.56;4949012;28;20092;-81
2023/03/09 04:38:42;;;;;;;7.90;3.70;;;;;;;12.36;69.34;99899.38;4955219;28;20519;-80
2023/03/09 04:41:11;;;;;;;11.75;4.32;;;;;;;12.15;69.14;99867.91;4951917;28;20129;-82
2023/03/09 04:43:38;;;;;;;5.25;3.75;;;;;;;12.33;69.60;99901.53;4953653;28;20050;-81
2023/03/09 04:46:05;;;;;;;7.75;3.92;;;;;;;12.15;69.63;99869.75;4956287;28;20775;-79
2023/03/09 04:48:37;;;;;;;8.90;4.05;;;;;;;12.10;69.80;99859.59;4969638;28;20065;-81
2023/03/09 04:51:06;;;;;;;8.75;4.00;;;;;;;12.07;69.76;99836.00;4962664;28;20328;-81
2023/03/09 04:53:37;;;;;;;13.90;5.82;;;;;;;12.40;69.31;99871.44;4956818;28;20046;-80
2023/03/09 04:56:20;;;;;;;9.52;5.53;;;;;;;12.40;69.15;99892.75;4945960;28;20297;-79
2023/03/09 04:59:03;;;;;;;8.93;4.47;;;;;;;12.22;69.47;99867.28;4943634;28;20466;-82
2023/03/09 05:01:36;;;;;;;9.82;4.68;;;;;;;12.06;69.66;99841.47;4935245;28;20049;-81
2023/03/09 05:04:05;;;;;;;6.05;4.20;;;;;;;12.19;69.61;99866.59;4997592;28;20298;-81
2023/03/09 05:06:34;;;;;;;6.47;4.32;;;;;;;12.06;70.20;99868.06;5016889;28;20706;-82
2023/03/09 05:09:05;;;;;;;10.40;4.18;;;;;;;12.21;70.46;99903.72;5001204;28;20531;-81
2023/03/09 05:11:42;;;;;;;10.00;3.92;;;;;;;12.17;70.06;99897.88;4984486;28;20386;-82
2023/03/09 05:14:09;;;;;;;11.10;3.75;;;;;;;12.04;70.04;99886.88;4997516;28;20128;-81
2023/03/09 05:16:35;;;;;;;8.45;3.92;;;;;;;12.25;70.08;99904.19;4992348;28;20437;-82
2023/03/09 05:19:11;;;;;;;11.07;3.97;;;;;;;12.39;69.39;99879.59;4998571;28;20080;-82
2023/03/09 05:21:38;;;;;;;15.02;4.40;;;;;;;12.40;69.28;99899.88;4980362;28;20115;-81
2023/03/09 05:24:07;;;;;;;11.15;4.60;;;;;;;12.40;69.08;99913.19;4982130;28;20052;-81
2023/03/09 05:26:37;;;;;;;9.63;4.38;;;;;;;12.27;69.70;99891.56;4980287;28;20060;-81
2023/03/09 05:29:03;;;;;;;10.93;3.92;;;;;;;12.19;69.57;99885.22;4979463;28;20576;-82
2023/03/09 05:31:39;;;;;;;12.02;4.28;;;;;;;12.27;69.68;99907.53;4980000;28;20061;-81
2023/03/09 05:34:09;;;;;;;10.00;4.78;;;;;;;12.39;69.85;99917.69;4987072;28;20057;-80
2023/03/09 05:36:39;;;;;;;10.35;4.30;;;;;;;12.09;69.98;99863.28;5011994;28;20151;-80
2023/03/09 05:39:06;;;;;;;8.43;4.22;;;;;;;12.46;69.45;99923.19;5014150;28;20385;-80
2023/03/09 05:41:39;;;;;;;8.75;4.28;;;;;;;12.12;69.95;99872.75;4995298;28;20155;-80
2023/03/09 05:44:16;;;;;;;7.30;4.72;;;;;;;12.20;69.61;99896.69;4992225;28;20278;-81
2023/03/09 05:46:42;;;;;;;8.70;4.22;;;;;;;12.18;70.36;99898.69;4976217;28;20045;-79
2023/03/09 05:49:10;;;;;;;6.78;3.05;;;;;;;12.46;70.19;99923.19;4988646;28;20398;-80
2023/03/09 05:51:37;;;;;;;11.70;4.20;;;;;;;12.50;69.85;99942.31;4998728;28;20280;-79
2023/03/09 05:54:06;;;;;;;5.38;3.53;;;;;;;12.44;70.01;99919.03;4997926;28;20174;-78
2023/03/09 05:56:47;;;;;;;7.53;3.25;;;;;;;12.53;69.64;99926.03;4982202;28;20081;-80
2023/03/09 05:59:17;;;;;;;4.80;2.83;;;;;;;12.60;69.71;99946.50;4983486;28;20682;-78
2023/03/09 06:01:46;;;;;;;4.30;3.08;;;;;;;12.59;69.55;99923.50;5003633;28;20280;-79
2023/03/09 06:04:26;;;;;;;4.95;1.65;;;;;;;12.63;69.51;99924.03;4994490;28;20053;-82
2023/03/09 06:06:53;;;;;;;7.80;3.25;;;;;;;13.15;67.85;99982.25;4994014;28;20057;-78
2023/03/09 06:09:20;;;;;;;12.30;3.42;;;;;;;12.85;66.65;99938.50;4999969;28;20041;-78
2023/03/09 06:11:48;;;;;;;15.90;5.60;;;;;;;13.05;65.40;100006.41;4999869;28;20052;-80
2023/03/09 06:14:26;;;;;;;7.95;5.53;;;;;;;12.74;65.78;99997.41;4989500;28;20257;-78
2023/03/09 06:16:57;;;;;;;11.57;7.10;;;;;;;12.59;65.99;100015.88;4998952;28;20053;-80
2023/03/09 06:19:33;;;;;;;9.93;6.32;;;;;;;12.34;66.69;100025.66;4983408;28;20322;-78
2023/03/09 06:22:00;;;;;;;14.98;6.57;;;;;;;12.28;67.19;100026.28;4972027;28;20393;-77
2023/03/09 06:24:32;;;;;;;11.45;8.05;;;;;;;12.10;66.91;100003.28;4976242;28;20478;-78
2023/03/09 06:26:59;;;;;;;14.52;9.77;;;;;;;12.09;67.19;100025.56;4979144;28;20076;-77
2023/03/09 06:29:30;;;;;;;14.77;10.88;;;;;;;12.01;67.62;100009.56;4969555;28;20116;-78
2023/03/09 06:32:00;;;;;;;24.52;14.02;;;;;;;11.98;67.66;99997.41;4972415;28;20871;-79
2023/03/09 06:34:30;;;;;;;20.90;13.80;;;;;;;12.05;67.63;100023.38;4988521;28;20185;-79
2023/03/09 06:36:57;;;;;;;36.80;18.42;;;;;;;12.22;67.11;100038.41;4996224;28;20053;-80
2023/03/09 06:39:26;;;;;;;26.90;16.58;;;;;;;12.11;67.62;100015.59;4984418;28;20311;-78
2023/03/09 06:41:54;;;;;;;34.17;22.48;;;;;;;12.12;67.66;100024.41;4993831;28;20050;-78
2023/03/09 06:44:21;;;;;;;37.85;22.95;;;;;;;11.94;68.28;100008.53;5002390;28;20491;-79
2023/03/09 06:46:47;;;;;;;34.83;24.25;;;;;;;12.14;67.37;100023.25;4985749;28;20091;-80
2023/03/09 06:49:14;;;;;;;38.58;25.55;;;;;;;12.31;67.48;100047.28;5016562;28;20406;-80
2023/03/09 06:51:41;;;;;;;43.53;27.33;;;;;;;12.33;66.91;100035.47;5030585;28;20135;-78
2023/03/09 06:54:07;;;;;;;38.47;26.02;;;;;;;12.39;67.43;100047.28;4996257;28;20136;-80
2023/03/09 06:56:40;;;;;;;34.80;23.00;;;;;;;12.36;66.86;100043.13;4985123;28;20076;-79
2023/03/09 06:59:09;;;;;;;38.85;27.35;;;;;;;12.50;66.31;100033.69;4985729;28;20111;-79
2023/03/09 07:01:42;;;;;;;45.20;28.73;;;;;;;12.52;65.93;100034.34;4992193;28;20051;-79
2023/03/09 07:04:11;;;;;;;33.33;25.38;;;;;;;12.23;66.22;99986.84;5009709;28;20060;-77
2023/03/09 07:06:38;;;;;;;46.03;29.25;;;;;;;12.63;65.37;100056.34;5017153;28;20444;-78
2023/03/09 07:09:04;;;;;;;42.67;29.02;;;;;;;12.66;65.47;100050.69;5015394;28;20056;-81
2023/03/09 07:11:39;;;;;;;45.90;30.63;;;;;;;12.51;65.46;100031.84;5012250;28;20057;-81
2023/03/09 07:14:10;;;;;;;43.83;29.80;;;;;;;12.86;64.59;100062.69;5016437;28;20049;-81
2023/03/09 07:16:37;;;;;;;45.13;29.88;;;;;;;12.82;64.34;100056.06;5010322;28;20334;-80
2023/03/09 07:19:03;;;;;;;41.60;27.70;;;;;;;12.92;64.38;100051.41;5017879;28;20059;-80
2023/03/09 07:21:30;;;;;;;44.83;29.63;;;;;;;12.65;64.48;100017.06;5009857;28;20076;-82
2023/03/09 07:23:58;;;;;;;41.17;29.73;;;;;;;12.88;63.94;100043.91;5006433;28;20062;-80
2023/03/09 07:26:30;;;;;;;40.15;28.35;;;;;;;12.98;64.09;100057.88;4969971;28;20092;-79
2023/03/09 07:29:09;;;;;;;40.55;29.25;;;;;;;12.81;64.10;100003.75;4948054;28;20237;-79
2023/03/09 07:31:42;;;;;;;37.30;29.35;;;;;;;13.11;63.71;100049.41;4995247;28;20046;-79
2023/03/09 07:34:15;;;;;;;44.22;29.75;;;;;;;13.28;63.07;100069.78;4979009;28;20088;-79
2023/03/09 07:37:02;;;;;;;46.63;29.15;;;;;;;13.35;62.96;100070.78;4997742;28;20046;-78
2023/03/09 07:39:48;;;;;;;35.20;26.73;;;;;;;13.44;63.35;100056.41;4965266;28;20053;-79
2023/03/09 07:42:19;;;;;;;43.30;27.13;;;;;;;13.43;63.37;100054.75;4984102;28;20248;-79
2023/03/09 07:45:03;;;;;;;42.55;26.85;;;;;;;13.57;63.09;100076.38;4990067;28;20515;-80
2023/03/09 07:47:31;;;;;;;41.80;27.83;;;;;;;13.63;63.14;100083.72;4933653;28;20336;-80
2023/03/09 07:50:14;;;;;;;40.95;28.40;;;;;;;13.64;61.19;100056.03;4993499;28;20654;-80
2023/03/09 07:52:42;;;;;;;45.92;29.90;;;;;;;13.72;60.50;100037.38;4987514;28;20345;-81
2023/03/09 07:55:22;;;;;;;42.80;30.48;;;;;;;13.90;60.42;100071.84;4983954;28;20076;-81
2023/03/09 07:57:54;;;;;;;42.70;29.88;;;;;;;13.79;60.50;100054.38;4980173;28;20104;-79
2023/03/09 08:00:27;;;;;;;43.15;29.85;;;;;;;13.98;60.27;100073.66;4935090;28;20045;-81
2023/03/09 08:02:56;;;;;;;42.30;29.83;;;;;;;14.05;59.48;100077.28;4972389;28;20511;-78
2023/03/09 08:05:25;;;;;;;46.38;31.88;;;;;;;13.73;59.73;100020.34;4988210;28;20139;-81
2023/03/09 08:07:51;;;;;;;42.20;30.15;;;;;;;14.16;59.43;100076.94;5001123;28;20057;-81
2023/03/09 08:10:23;;;;;;;41.92;29.05;;;;;;;14.10;59.24;100066.94;4976951;28;20083;-83
2023/03/09 08:12:50;;;;;;;43.75;31.92;;;;;;;13.94;58.70;100005.63;5004699;28;20273;-80
2023/03/09 08:15:25;;;;;;;42.50;30.30;;;;;;;13.94;59.15;100021.63;4989053;28;20230;-80
2023/03/09 08:17:58;;;;;;;45.83;28.65;;;;;;;13.99;59.08;100025.44;4922273;28;20325;-81
2023/03/09 08:20:32;;;;;;;48.88;33.60;;;;;;;14.11;58.80;100047.25;4937236;28;20053;-79
2023/03/09 08:23:03;;;;;;;36.72;26.95;;;;;;;14.19;58.67;100031.19;4966163;28;20573;-80
2023/03/09 08:25:35;;;;;;;48.03;30.90;;;;;;;14.48;58.26;100080.47;4978209;28;20065;-79
2023/03/09 08:28:05;;;;;;;40.58;28.40;;;;;;;14.51;57.81;100072.09;4962849;28;20077;-76
2023/03/09 08:30:32;;;;;;;52.83;29.17;;;;;;;14.44;57.82;100066.66;4985281;28;20057;-77
2023/03/09 08:32:58;;;;;;;47.47;29.75;;;;;;;14.50;57.50;100067.78;4969593;28;20195;-78
2023/03/09 08:35:32;;;;;;;36.67;28.52;;;;;;;14.59;56.93;100065.91;4968091;28;20163;-78
2023/03/09 08:38:00;;;;;;;42.35;29.08;;;;;;;14.49;57.63;100060.75;5002144;28;20094;-77
2023/03/09 08:40:29;;;;;;;40.25;28.00;;;;;;;14.29;57.40;100023.81;5010311;28;20084;-78
2023/03/09 08:42:57;;;;;;;43.85;29.25;;;;;;;14.58;57.23;100072.28;5019108;28;20185;-78
2023/03/09 08:45:27;;;;;;;41.03;27.98;;;;;;;14.56;57.44;100076.94;4999591;28;20060;-78
2023/03/09 08:47:57;;;;;;;39.47;27.08;;;;;;;14.55;57.45;100064.63;5004919;28;20045;-77
2023/03/09 08:50:23;;;;;;;46.17;27.48;;;;;;;14.57;57.72;100074.13;5003637;28;20326;-79
2023/03/09 08:52:54;;;;;;;47.55;28.80;;;;;;;14.56;57.77;100072.44;4995399;28;20049;-80
2023/03/09 08:55:22;;;;;;;47.78;29.67;;;;;;;14.62;57.51;100066.41;4987595;28;20286;-77
2023/03/09 08:57:51;;;;;;;43.72;27.98;;;;;;;13.96;58.02;99971.59;4993732;28;20120;-77
2023/03/09 09:00:24;;;;;;;41.60;27.80;;;;;;;14.50;58.06;100059.75;5004853;28;20279;-79
2023/03/09 09:02:54;;;;;;;39.72;26.73;;;;;;;14.70;57.25;100071.69;4993391;28;20053;-79
2023/03/09 09:05:21;;;;;;;40.08;26.85;;;;;;;14.87;57.20;100101.81;4959702;28;20429;-79
2023/03/09 09:07:51;;;;;;;37.25;27.13;;;;;;;14.56;58.04;100064.41;4973107;28;20111;-76
2023/03/09 09:10:17;;;;;;;38.40;25.98;;;;;;;14.91;57.68;100096.97;4984294;28;20495;-79
2023/03/09 09:13:01;;;;;;;39.95;24.00;;;;;;;14.96;57.76;100110.63;5003939;28;20148;-79
2023/03/09 09:15:34;;;;;;;37.90;24.42;;;;;;;14.97;58.04;100104.25;4983086;28;20184;-79
2023/03/09 09:18:01;;;;;;;46.30;26.63;;;;;;;15.02;58.03;100088.50;4976836;28;20385;-78
2023/03/09 09:20:37;;;;;;;34.25;22.85;;;;;;;15.27;58.27;100115.94;4979148;28;20216;-79
2023/03/09 09:23:03;;;;;;;31.60;23.55;;;;;;;15.49;58.21;100119.59;4965294;28;20141;-78
2023/03/09 09:25:30;;;;;;;43.38;25.23;;;;;;;15.38;58.08;100088.75;4976686;28;20065;-76
2023/03/09 09:28:05;;;;;;;31.88;21.38;;;;;;;15.60;58.04;100103.09;4961362;28;20281;-79
2023/03/09 09:30:43;;;;;;;31.48;21.45;;;;;;;15.55;58.32;100086.75;4965450;28;20221;-77
2023/03/09 09:33:14;;;;;;;39.13;21.77;;;;;;;15.70;58.21;100094.84;4962590;28;20324;-79
2023/03/09 09:35:40;;;;;;;29.85;19.08;;;;;;;15.99;57.75;100112.78;4963951;28;20639;-78
2023/03/09 09:38:18;;;;;;;29.65;19.70;;;;;;;15.32;58.18;99997.72;4971906;28;20049;-79
2023/03/09 09:40:45;;;;;;;25.55;17.10;;;;;;;15.53;57.52;100031.78;4962637;28;20046;-79
2023/03/09 09:43:18;;;;;;;24.00;15.70;;;;;;;15.51;57.61;100021.28;4977802;28;20107;-76
2023/03/09 09:45:47;;;;;;;30.67;16.83;;;;;;;16.08;57.73;100093.97;4983775;28;20057;-78
2023/03/09 09:48:22;;;;;;;21.67;15.82;;;;;;;16.13;57.64;100091.56;4961638;28;20058;-79
2023/03/09 09:51:12;;;;;;;25.33;16.15;;;;;;;16.22;57.56;100106.53;4959141;28;20133;-77
2023/03/09 09:54:17;;;;;;;23.40;14.95;;;;;;;16.31;57.82;100108.09;4982192;28;20383;-77
2023/03/09 09:56:55;;;;;;;24.88;16.73;;;;;;;16.23;57.81;100092.09;4951120;28;20050;-77
2023/03/09 09:59:40;;;;;;;21.83;16.25;;;;;;;16.08;57.68;100053.81;4955383;28;20419;-76
2023/03/09 10:02:22;;;;;;;21.77;16.08;;;;;;;16.35;57.53;100085.25;4957099;28;20301;-79
2023/03/09 10:05:01;;;;;;;25.75;15.73;;;;;;;16.31;57.76;100081.31;4952885;28;20046;-81
2023/03/09 10:07:33;;;;;;;21.95;15.90;;;;;;;16.41;57.89;100089.06;4961910;28;20530;-80
2023/03/09 10:10:10;;;;;;;24.20;15.15;;;;;;;15.97;57.72;100006.91;4966023;28;20132;-78
2023/03/09 10:12:39;;;;;;;27.75;17.08;;;;;;;16.54;57.28;100077.66;4967724;28;20056;-79
2023/03/09 10:15:14;;;;;;;21.30;15.02;;;;;;;16.45;57.71;100068.88;4955611;28;20428;-79
2023/03/09 10:18:11;;;;;;;23.95;15.55;;;;;;;16.70;57.43;100104.25;4955911;28;20274;-80
2023/03/09 10:20:52;;;;;;;26.35;16.15;;;;;;;16.56;57.63;100097.06;4959397;28;20066;-80
2023/03/09 10:23:24;;;;;;;25.85;16.67;;;;;;;16.68;57.67;100111.63;4954963;28;20138;-79
2023/03/09 10:25:55;;;;;;;24.30;16.17;;;;;;;15.44;57.09;99888.41;4954981;28;20046;-77
2023/03/09 10:28:30;;;;;;;25.98;15.07;;;;;;;16.79;56.76;100083.53;4969597;28;20366;-77
2023/03/09 10:31:20;;;;;;;21.20;15.70;;;;;;;16.99;56.43;100102.50;4957313;28;20127;-77
2023/03/09 10:34:23;;;;;;;19.40;14.35;;;;;;;16.75;56.39;100066.97;4961312;28;20135;-77
2023/03/09 10:37:11;;;;;;;19.88;14.05;;;;;;;17.01;55.96;100079.84;4954878;28;20289;-78
2023/03/09 10:39:47;;;;;;;22.40;14.82;;;;;;;17.06;56.04;100098.91;4943472;28;20570;-78
2023/03/09 10:42:21;;;;;;;25.63;15.32;;;;;;;17.00;56.55;100106.88;4937508;28;20050;-79
2023/03/09 10:45:23;;;;;;;23.08;15.52;;;;;;;17.21;55.62;100112.25;4927600;28;20043;-77
2023/03/09 10:47:58;;;;;;;18.45;12.98;;;;;;;17.30;56.02;100124.47;4951529;28;20045;-78
2023/03/09 10:50:31;;;;;;;20.17;15.65;;;;;;;17.26;55.98;100088.34;4990471;28;20064;-80
2023/03/09 10:53:34;;;;;;;22.95;13.63;;;;;;;17.32;55.81;100105.53;4963065;28;20062;-79
2023/03/09 10:56:15;;;;;;;21.27;12.30;;;;;;;17.41;54.43;100096.31;4941630;28;20611;-79
2023/03/09 10:59:06;;;;;;;17.05;12.02;;;;;;;16.92;54.55;100045.31;4952792;28;20042;-80
2023/03/09 11:01:43;;;;;;;24.35;11.82;;;;;;;17.46;54.75;100111.84;4952942;28;20053;-79
2023/03/09 11:04:34;;;;;;;19.92;12.30;;;;;;;17.07;54.53;100020.09;4951101;28;20343;-79
2023/03/09 11:07:17;;;;;;;20.10;13.98;;;;;;;17.93;54.85;100110.38;4940403;28;20054;-80
2023/03/09 11:09:55;;;;;;;20.58;14.73;;;;;;;18.01;54.02;100096.81;4950860;28;20060;-80
2023/03/09 11:12:29;;;;;;;21.45;13.05;;;;;;;18.37;53.24;100111.84;4924710;28;20207;-80
2023/03/09 11:15:37;;;;;;;22.10;14.10;;;;;;;18.08;53.51;100060.06;4942982;28;20524;-79
2023/03/09 11:18:29;;;;;;;16.85;11.15;;;;;;;18.45;53.25;100114.41;4945874;28;20376;-79
2023/03/09 11:20:56;;;;;;;23.23;14.65;;;;;;;18.33;53.14;100094.50;4957340;28;20138;-79
2023/03/09 11:23:45;;;;;;;22.33;12.65;;;;;;;18.60;52.98;100105.34;4970348;28;20452;-77
2023/03/09 11:26:42;;;;;;;18.88;12.60;;;;;;;18.72;52.62;100093.00;4947669;28;20046;-77
2023/03/09 11:29:34;;;;;;;25.58;14.13;;;;;;;18.94;51.46;100088.31;4942262;28;20046;-77
2023/03/09 11:32:01;;;;;;;15.63;10.25;;;;;;;18.71;51.94;100094.81;4973901;28;20439;-78
2023/03/09 11:34:35;;;;;;;18.55;10.85;;;;;;;18.56;52.68;100084.22;4956231;28;20230;-77
2023/03/09 11:37:21;;;;;;;25.58;13.60;;;;;;;18.34;53.28;100058.53;4965972;28;20057;-78
2023/03/09 11:40:12;;;;;;;18.13;12.23;;;;;;;18.70;52.54;100043.97;4954140;28;20128;-79
2023/03/09 11:43:23;;;;;;;30.17;16.58;;;;;;;18.80;52.77;100049.81;4968861;28;20103;-76
2023/03/09 11:46:01;;;;;;;17.52;10.75;;;;;;;18.97;51.36;100061.00;4968840;28;20128;-78
2023/03/09 11:48:53;;;;;;;13.80;9.65;;;;;;;18.23;50.70;99975.78;4967329;28;20338;-79